createdAt,value
2018-01-22T00:00:46.596Z,0
2018-01-22T00:01:31.967Z,0
2018-01-22T00:02:32.214Z,0
2018-01-22T00:03:32.282Z,0
2018-01-22T00:04:32.217Z,0
2018-01-22T00:05:31.764Z,0
2018-01-22T00:06:32.262Z,0
2018-01-22T00:07:32.298Z,0
2018-01-22T00:08:32.048Z,0
2018-01-22T00:09:46.473Z,0
2018-01-22T00:10:32.077Z,0
2018-01-22T00:11:32.317Z,0
2018-01-22T00:12:31.850Z,0
2018-01-22T00:13:31.844Z,0
2018-01-22T00:14:32.146Z,0
2018-01-22T00:15:32.407Z,0
2018-01-22T00:17:32.417Z,0
2018-01-22T00:18:32.429Z,0
2018-01-22T00:19:32.502Z,0
2018-01-22T00:20:32.441Z,0
2018-01-22T00:21:32.479Z,0
2018-01-22T00:22:32.255Z,0
2018-01-22T00:23:32.234Z,0
2018-01-22T00:24:32.252Z,0
2018-01-22T00:25:32.261Z,0
2018-01-22T00:26:47.219Z,0
2018-01-22T00:27:32.544Z,0
2018-01-22T00:28:32.588Z,0
2018-01-22T00:30:32.333Z,0
2018-01-22T00:31:47.271Z,0
2018-01-22T00:32:47.077Z,0
2018-01-22T00:33:32.649Z,0
2018-01-22T00:34:32.732Z,0
2018-01-22T00:35:32.243Z,0
2018-01-22T00:36:32.673Z,0
2018-01-22T00:37:32.696Z,0
2018-01-22T00:38:32.502Z,0
2018-01-22T00:39:46.881Z,0
2018-01-22T00:40:32.751Z,0
2018-01-22T00:41:32.479Z,0
2018-01-22T00:43:32.776Z,0
2018-01-22T00:44:32.820Z,0
2018-01-22T00:45:47.227Z,0
2018-01-22T00:46:32.793Z,0
2018-01-22T00:47:32.572Z,0
2018-01-22T00:48:47.272Z,0
2018-01-22T00:49:32.606Z,0
2018-01-22T00:52:32.498Z,0
2018-01-22T00:53:32.648Z,0
2018-01-22T00:54:32.906Z,0
2018-01-22T00:55:32.919Z,0
2018-01-22T00:56:32.956Z,0
2018-01-22T00:57:32.981Z,0
2018-01-22T00:59:32.794Z,0
2018-01-22T01:00:47.455Z,0
2018-01-22T01:01:33.017Z,0
2018-01-22T01:02:32.788Z,0
2018-01-22T01:03:32.801Z,0
2018-01-22T01:04:47.736Z,0
2018-01-22T01:05:33.101Z,0
2018-01-22T01:06:32.832Z,0
2018-01-22T01:07:33.084Z,0
2018-01-22T01:08:33.116Z,0
2018-01-22T01:09:33.174Z,0
2018-01-22T01:11:33.236Z,0
2018-01-22T01:12:32.899Z,0
2018-01-22T01:13:32.945Z,0
2018-01-22T01:14:33.182Z,0
2018-01-22T01:15:33.204Z,0
2018-01-22T01:16:32.990Z,0
2018-01-22T01:17:32.989Z,0
2018-01-22T01:18:32.979Z,0
2018-01-22T01:19:33.271Z,0
2018-01-22T01:20:48.057Z,0
2018-01-22T01:21:33.294Z,0
2018-01-22T01:22:47.736Z,0
2018-01-22T01:23:33.072Z,0
2018-01-22T01:24:33.376Z,0
2018-01-22T01:25:33.376Z,0
2018-01-22T01:26:47.908Z,0
2018-01-22T01:27:47.790Z,0
2018-01-22T01:28:33.151Z,0
2018-01-22T01:29:33.380Z,0
2018-01-22T01:30:33.412Z,0
2018-01-22T01:31:33.428Z,0
2018-01-22T01:32:33.190Z,0
2018-01-22T01:33:33.216Z,0
2018-01-22T01:34:33.448Z,0
2018-01-22T01:35:48.241Z,0
2018-01-22T01:36:33.253Z,0
2018-01-22T01:37:33.511Z,0
2018-01-22T01:38:33.278Z,0
2018-01-22T01:39:33.554Z,0
2018-01-22T01:40:33.033Z,0
2018-01-22T01:41:33.548Z,0
2018-01-22T01:42:33.330Z,0
2018-01-22T01:43:33.318Z,0
2018-01-22T01:44:33.585Z,0
2018-01-22T01:45:33.598Z,0
2018-01-22T01:46:33.656Z,0
2018-01-22T01:48:33.656Z,0
2018-01-22T01:49:48.538Z,0
2018-01-22T01:50:33.446Z,0
2018-01-22T01:51:33.780Z,0
2018-01-22T01:52:33.721Z,0
2018-01-22T01:53:33.215Z,0
2018-01-22T01:54:33.250Z,0
2018-01-22T01:55:33.249Z,0
2018-01-22T01:56:48.217Z,0
2018-01-22T01:57:33.809Z,0
2018-01-22T01:58:48.236Z,0
2018-01-22T01:59:33.796Z,0
2018-01-22T02:00:33.823Z,0
2018-01-22T02:02:33.341Z,0
2018-01-22T02:03:33.367Z,0
2018-01-22T02:04:33.914Z,0
2018-01-22T02:05:33.869Z,0
2018-01-22T02:06:33.651Z,0
2018-01-22T02:08:33.664Z,0
2018-01-22T02:09:33.711Z,0
2018-01-22T02:10:34.054Z,0
2018-01-22T02:11:33.950Z,0
2018-01-22T02:12:33.971Z,0
2018-01-22T02:13:48.696Z,0
2018-01-22T02:15:33.779Z,0
2018-01-22T02:16:34.022Z,0
2018-01-22T02:17:33.830Z,0
2018-01-22T02:18:34.061Z,0
2018-01-22T02:19:34.106Z,0
2018-01-22T02:20:33.828Z,0
2018-01-22T02:21:33.595Z,0
2018-01-22T02:22:33.846Z,0
2018-01-22T02:24:03.223Z,0
2018-01-22T02:24:33.872Z,0
2018-01-22T02:25:34.162Z,0
2018-01-22T02:26:33.675Z,0
2018-01-22T02:27:34.192Z,0
2018-01-22T02:28:34.180Z,0
2018-01-22T02:29:34.202Z,0
2018-01-22T02:30:34.249Z,0
2018-01-22T02:32:34.249Z,0
2018-01-22T02:33:34.267Z,0
2018-01-22T02:34:34.015Z,0
2018-01-22T02:35:33.899Z,0
2018-01-22T02:36:34.312Z,0
2018-01-22T02:37:34.421Z,0
2018-01-22T02:38:34.081Z,0
2018-01-22T02:40:34.384Z,0
2018-01-22T02:41:34.387Z,0
2018-01-22T02:42:34.390Z,0
2018-01-22T02:43:48.829Z,0
2018-01-22T02:44:34.394Z,0
2018-01-22T02:45:34.189Z,0
2018-01-22T02:46:34.183Z,0
2018-01-22T02:47:34.453Z,0
2018-01-22T02:48:34.208Z,0
2018-01-22T02:49:34.481Z,0
2018-01-22T02:50:49.172Z,0
2018-01-22T02:51:34.264Z,0
2018-01-22T02:52:34.526Z,0
2018-01-22T02:53:34.033Z,0
2018-01-22T02:54:34.553Z,0
2018-01-22T02:55:48.985Z,0
2018-01-22T02:56:34.585Z,0
2018-01-22T02:58:34.106Z,0
2018-01-22T02:59:49.070Z,0
2018-01-22T03:00:34.400Z,0
2018-01-22T03:01:34.424Z,0
2018-01-22T03:03:34.717Z,0
2018-01-22T03:05:34.711Z,0
2018-01-22T03:06:34.717Z,0
2018-01-22T03:07:34.729Z,0
2018-01-22T03:08:34.238Z,0
2018-01-22T03:09:34.756Z,0
2018-01-22T03:10:49.206Z,0
2018-01-22T03:11:34.770Z,0
2018-01-22T03:12:34.801Z,0
2018-01-22T03:13:34.910Z,0
2018-01-22T03:14:34.563Z,0
2018-01-22T03:16:34.582Z,0
2018-01-22T03:17:34.621Z,0
2018-01-22T03:18:49.556Z,0
2018-01-22T03:19:34.906Z,0
2018-01-22T03:20:49.572Z,0
2018-01-22T03:21:49.584Z,0
2018-01-22T03:22:49.589Z,0
2018-01-22T03:23:49.610Z,0
2018-01-22T03:24:34.932Z,0
2018-01-22T03:25:34.760Z,0
2018-01-22T03:26:35.002Z,0
2018-01-22T03:27:35.024Z,0
2018-01-22T03:28:35.010Z,0
2018-01-22T03:29:35.021Z,0
2018-01-22T03:30:35.085Z,0
2018-01-22T03:31:35.073Z,0
2018-01-22T03:32:35.087Z,0
2018-01-22T03:33:49.620Z,0
2018-01-22T03:34:34.842Z,0
2018-01-22T03:35:35.084Z,0
2018-01-22T03:36:49.780Z,0
2018-01-22T03:37:35.153Z,0
2018-01-22T03:38:34.898Z,0
2018-01-22T03:39:35.134Z,0
2018-01-22T03:40:35.162Z,0
2018-01-22T03:41:35.181Z,0
2018-01-22T03:42:49.877Z,0
2018-01-22T03:43:35.313Z,0
2018-01-22T03:44:35.248Z,0
2018-01-22T03:45:35.000Z,0
2018-01-22T03:46:35.280Z,0
2018-01-22T03:47:35.288Z,0
2018-01-22T03:48:35.029Z,0
2018-01-22T03:49:35.052Z,0
2018-01-22T03:50:35.295Z,0
2018-01-22T03:51:35.364Z,0
2018-01-22T03:52:49.761Z,0
2018-01-22T03:53:35.454Z,0
2018-01-22T03:54:35.361Z,0
2018-01-22T03:55:35.509Z,0
2018-01-22T03:56:35.128Z,0
2018-01-22T03:57:35.426Z,0
2018-01-22T03:58:49.863Z,0
2018-01-22T04:00:35.498Z,0
2018-01-22T04:01:35.183Z,0
2018-01-22T04:02:35.494Z,0
2018-01-22T04:03:35.220Z,0
2018-01-22T04:04:35.492Z,0
2018-01-22T04:05:35.000Z,0
2018-01-22T04:06:35.267Z,0
2018-01-22T04:07:35.567Z,0
2018-01-22T04:08:35.526Z,0
2018-01-22T04:09:35.584Z,0
2018-01-22T04:10:35.575Z,0
2018-01-22T04:11:35.067Z,0
2018-01-22T04:12:35.614Z,0
2018-01-22T04:13:35.163Z,0
2018-01-22T04:14:50.062Z,0
2018-01-22T04:15:35.407Z,0
2018-01-22T04:16:35.654Z,0
2018-01-22T04:17:35.167Z,0
2018-01-22T04:18:35.161Z,0
2018-01-22T04:19:35.427Z,0
2018-01-22T04:20:35.725Z,0
2018-01-22T04:21:35.961Z,0
2018-01-22T04:22:35.754Z,0
2018-01-22T04:23:35.756Z,0
2018-01-22T04:25:35.262Z,0
2018-01-22T04:26:50.465Z,0
2018-01-22T04:27:50.483Z,0
2018-01-22T04:28:35.859Z,0
2018-01-22T04:29:35.578Z,0
2018-01-22T04:30:50.520Z,0
2018-01-22T04:31:50.525Z,0
2018-01-22T04:32:35.898Z,0
2018-01-22T04:33:35.880Z,0
2018-01-22T04:34:35.936Z,0
2018-01-22T04:35:35.904Z,0
2018-01-22T04:36:35.956Z,0
2018-01-22T04:37:35.674Z,0
2018-01-22T04:38:35.929Z,0
2018-01-22T04:40:36.076Z,0
2018-01-22T04:41:35.719Z,0
2018-01-22T04:42:36.007Z,0
2018-01-22T04:43:35.764Z,0
2018-01-22T04:44:35.759Z,0
2018-01-22T04:45:50.802Z,0
2018-01-22T04:47:36.144Z,0
2018-01-22T04:48:36.130Z,0
2018-01-22T04:49:36.121Z,0
2018-01-22T04:50:36.129Z,0
2018-01-22T04:51:35.989Z,0
2018-01-22T04:52:36.115Z,0
2018-01-22T04:53:36.132Z,0
2018-01-22T04:54:35.921Z,0
2018-01-22T04:55:36.189Z,0
2018-01-22T04:56:35.957Z,0
2018-01-22T04:57:36.206Z,0
2018-01-22T04:58:35.940Z,0
2018-01-22T04:59:50.886Z,0
2018-01-22T05:00:36.222Z,0
2018-01-22T05:01:36.004Z,0
2018-01-22T05:02:36.138Z,0
2018-01-22T05:03:36.279Z,0
2018-01-22T05:04:36.295Z,0
2018-01-22T05:05:36.291Z,0
2018-01-22T05:06:36.067Z,0
2018-01-22T05:07:36.115Z,0
2018-01-22T05:08:36.111Z,0
2018-01-22T05:09:36.377Z,0
2018-01-22T05:10:36.353Z,0
2018-01-22T05:11:51.062Z,0
2018-01-22T05:12:36.437Z,0
2018-01-22T05:13:36.156Z,0
2018-01-22T05:14:36.411Z,0
2018-01-22T05:15:36.206Z,0
2018-01-22T05:16:36.179Z,0
2018-01-22T05:17:50.896Z,0
2018-01-22T05:18:36.219Z,0
2018-01-22T05:19:36.467Z,0
2018-01-22T05:20:36.520Z,0
2018-01-22T05:21:36.286Z,0
2018-01-22T05:22:36.548Z,0
2018-01-22T05:23:36.307Z,0
2018-01-22T05:24:36.293Z,0
2018-01-22T05:25:36.312Z,0
2018-01-22T05:26:36.556Z,0
2018-01-22T05:27:36.118Z,0
2018-01-22T05:28:36.629Z,0
2018-01-22T05:29:36.636Z,0
2018-01-22T05:30:36.619Z,0
2018-01-22T05:31:36.661Z,0
2018-01-22T05:32:36.657Z,0
2018-01-22T05:33:51.334Z,0
2018-01-22T05:34:36.679Z,0
2018-01-22T05:35:36.709Z,0
2018-01-22T05:36:36.452Z,0
2018-01-22T05:37:36.209Z,0
2018-01-22T05:38:36.754Z,0
2018-01-22T05:40:36.759Z,0
2018-01-22T05:41:51.453Z,0
2018-01-22T05:42:36.791Z,0
2018-01-22T05:43:51.501Z,0
2018-01-22T05:44:36.548Z,0
2018-01-22T05:45:36.831Z,0
2018-01-22T05:46:36.824Z,0
2018-01-22T05:47:36.825Z,0
2018-01-22T05:48:36.639Z,0
2018-01-22T05:49:51.720Z,0
2018-01-22T05:50:36.927Z,0
2018-01-22T05:52:51.590Z,0
2018-01-22T05:53:36.953Z,0
2018-01-22T05:54:36.945Z,0
2018-01-22T05:55:36.954Z,0
2018-01-22T05:56:36.815Z,0
2018-01-22T05:58:36.974Z,0
2018-01-22T05:59:36.991Z,0
2018-01-22T06:00:51.696Z,0
2018-01-22T06:01:51.697Z,0
2018-01-22T06:02:37.140Z,0
2018-01-22T06:04:37.093Z,0
2018-01-22T06:08:37.097Z,0
2018-01-22T06:09:37.153Z,0
2018-01-22T06:10:36.876Z,0
2018-01-22T06:11:37.159Z,0
2018-01-22T06:12:37.175Z,0
2018-01-22T06:13:37.301Z,0
2018-01-22T06:15:37.273Z,0
2018-01-22T06:16:37.298Z,0
2018-01-22T06:17:37.341Z,0
2018-01-22T06:19:37.268Z,0
2018-01-22T06:20:51.711Z,0
2018-01-22T06:21:37.268Z,0
2018-01-22T06:22:37.305Z,0
2018-01-22T06:24:37.350Z,0
2018-01-22T06:25:37.348Z,0
2018-01-22T06:26:37.379Z,0
2018-01-22T06:27:37.365Z,4
2018-01-22T06:28:37.417Z,4
2018-01-22T06:29:51.806Z,0
2018-01-22T06:31:37.469Z,4
2018-01-22T06:32:51.851Z,4
2018-01-22T06:33:52.225Z,0
2018-01-22T06:34:37.184Z,4
2018-01-22T06:35:37.453Z,4
2018-01-22T06:36:37.507Z,4
2018-01-22T06:37:37.253Z,8
2018-01-22T06:38:37.555Z,4
2018-01-22T06:40:37.522Z,8
2018-01-22T06:41:37.631Z,12
2018-01-22T06:42:37.538Z,12
2018-01-22T06:43:37.571Z,16
2018-01-22T06:44:52.265Z,20
2018-01-22T06:45:37.704Z,24
2018-01-22T06:46:52.289Z,28
2018-01-22T06:47:37.621Z,28
2018-01-22T06:48:37.413Z,36
2018-01-22T06:49:52.062Z,44
2018-01-22T06:51:37.791Z,60
2018-01-22T06:52:52.352Z,68
2018-01-22T06:53:37.680Z,76
2018-01-22T06:54:37.700Z,84
2018-01-22T06:55:37.734Z,88
2018-01-22T06:56:37.523Z,92
2018-01-22T06:57:37.759Z,104
2018-01-22T06:58:52.182Z,116
2018-01-22T06:59:37.514Z,124
2018-01-22T07:00:37.646Z,136
2018-01-22T07:01:37.803Z,152
2018-01-22T07:02:37.587Z,168
2018-01-22T07:03:37.836Z,184
2018-01-22T07:04:52.593Z,204
2018-01-22T07:05:37.854Z,216
2018-01-22T07:07:37.903Z,256
2018-01-22T07:08:52.576Z,268
2018-01-22T07:09:37.899Z,264
2018-01-22T07:10:37.646Z,264
2018-01-22T07:11:37.693Z,268
2018-01-22T07:12:38.067Z,272
2018-01-22T07:13:52.391Z,284
2018-01-22T07:14:37.834Z,292
2018-01-22T07:15:38.026Z,300
2018-01-22T07:16:37.827Z,308
2018-01-22T07:17:37.756Z,312
2018-01-22T07:18:37.776Z,316
2018-01-22T07:19:37.776Z,328
2018-01-22T07:20:38.048Z,332
2018-01-22T07:21:38.081Z,340
2018-01-22T07:22:38.103Z,348
2018-01-22T07:23:38.197Z,356
2018-01-22T07:24:52.617Z,364
2018-01-22T07:25:52.798Z,384
2018-01-22T07:26:52.300Z,408
2018-01-22T07:27:38.120Z,420
2018-01-22T07:28:38.132Z,436
2018-01-22T07:29:52.864Z,452
2018-01-22T07:30:52.585Z,460
2018-01-22T07:31:38.199Z,468
2018-01-22T07:32:37.683Z,468
2018-01-22T07:33:38.323Z,456
2018-01-22T07:34:38.275Z,436
2018-01-22T07:35:38.360Z,440
2018-01-22T07:36:38.024Z,468
2018-01-22T07:37:38.264Z,508
2018-01-22T07:38:38.280Z,556
2018-01-22T07:39:38.300Z,620
2018-01-22T07:40:52.966Z,712
2018-01-22T07:41:52.788Z,764
2018-01-22T07:42:38.081Z,800
2018-01-22T07:43:37.847Z,852
2018-01-22T07:44:38.348Z,900
2018-01-22T07:45:38.370Z,976
2018-01-22T07:46:38.403Z,1008
2018-01-22T07:47:38.380Z,964
2018-01-22T07:48:38.150Z,904
2018-01-22T07:50:38.441Z,816
2018-01-22T07:51:38.439Z,816
2018-01-22T07:52:53.144Z,824
2018-01-22T07:53:38.502Z,832
2018-01-22T07:54:38.501Z,844
2018-01-22T07:55:53.186Z,856
2018-01-22T07:56:52.696Z,864
2018-01-22T07:57:38.517Z,876
2018-01-22T07:58:38.559Z,888
2018-01-22T07:59:38.632Z,900
2018-01-22T08:00:38.574Z,920
2018-01-22T08:01:38.595Z,928
2018-01-22T08:03:38.607Z,928
2018-01-22T08:04:38.731Z,928
2018-01-22T08:05:38.633Z,936
2018-01-22T08:06:38.665Z,948
2018-01-22T08:07:38.704Z,960
2018-01-22T08:09:38.684Z,1036
2018-01-22T08:10:38.704Z,1092
2018-01-22T08:11:38.692Z,1132
2018-01-22T08:12:38.249Z,1164
2018-01-22T08:13:38.809Z,1192
2018-01-22T08:14:38.477Z,1220
2018-01-22T08:15:38.788Z,1244
2018-01-22T08:16:38.514Z,1268
2018-01-22T08:17:38.521Z,1304
2018-01-22T08:18:38.826Z,1332
2018-01-22T08:19:38.557Z,1372
2018-01-22T08:20:38.917Z,1404
2018-01-22T08:21:38.594Z,1436
2018-01-22T08:22:38.859Z,1452
2018-01-22T08:23:38.898Z,1452
2018-01-22T08:24:38.889Z,1448
2018-01-22T08:25:38.898Z,1440
2018-01-22T08:26:38.719Z,1440
2018-01-22T08:27:53.600Z,1444
2018-01-22T08:28:38.958Z,1456
2018-01-22T08:29:38.697Z,1508
2018-01-22T08:30:38.962Z,1600
2018-01-22T08:31:38.738Z,1700
2018-01-22T08:32:39.118Z,1780
2018-01-22T08:33:38.996Z,1840
2018-01-22T08:34:39.013Z,1892
2018-01-22T08:35:39.053Z,1980
2018-01-22T08:36:53.722Z,2156
2018-01-22T08:37:38.972Z,2260
2018-01-22T08:38:39.106Z,2368
2018-01-22T08:39:38.808Z,2444
2018-01-22T08:40:39.104Z,2488
2018-01-22T08:41:39.086Z,2516
2018-01-22T08:42:38.891Z,2520
2018-01-22T08:43:53.543Z,2532
2018-01-22T08:44:39.153Z,2540
2018-01-22T08:45:38.924Z,2552
2018-01-22T08:47:39.227Z,2628
2018-01-22T08:49:39.191Z,2680
2018-01-22T08:50:39.227Z,2700
2018-01-22T08:51:38.719Z,2740
2018-01-22T08:52:53.915Z,2816
2018-01-22T08:53:38.996Z,2872
2018-01-22T08:54:39.026Z,2932
2018-01-22T08:55:39.295Z,2976
2018-01-22T08:56:39.064Z,3048
2018-01-22T08:57:39.054Z,3184
2018-01-22T08:58:39.095Z,3372
2018-01-22T08:59:53.782Z,3544
2018-01-22T09:00:39.380Z,3656
2018-01-22T09:01:39.374Z,3780
2018-01-22T09:02:39.387Z,3872
2018-01-22T09:03:39.417Z,3924
2018-01-22T09:04:39.399Z,3892
2018-01-22T09:05:53.834Z,3872
2018-01-22T09:06:39.323Z,3916
2018-01-22T09:07:39.476Z,4112
2018-01-22T09:08:39.234Z,4436
2018-01-22T09:09:39.606Z,4780
2018-01-22T09:10:54.192Z,5072
2018-01-22T09:11:53.677Z,5184
2018-01-22T09:12:39.517Z,5216
2018-01-22T09:13:39.310Z,5312
2018-01-22T09:14:54.228Z,5452
2018-01-22T09:15:53.735Z,5596
2018-01-22T09:16:39.572Z,5836
2018-01-22T09:17:54.263Z,6172
2018-01-22T09:18:39.362Z,6604
2018-01-22T09:19:54.132Z,7284
2018-01-22T09:20:39.770Z,7628
2018-01-22T09:21:39.641Z,7536
2018-01-22T09:22:39.654Z,7364
2018-01-22T09:24:54.372Z,7908
2018-01-22T09:25:39.706Z,7584
2018-01-22T09:26:39.448Z,7704
2018-01-22T09:28:54.155Z,6776
2018-01-22T09:29:39.252Z,6708
2018-01-22T09:30:54.458Z,6712
2018-01-22T09:31:39.623Z,6788
2018-01-22T09:32:39.773Z,7204
2018-01-22T09:33:39.620Z,6820
2018-01-22T09:34:39.577Z,6260
2018-01-22T09:35:39.629Z,7704
2018-01-22T09:36:39.347Z,7568
2018-01-22T09:37:39.904Z,6612
2018-01-22T09:38:39.903Z,7064
2018-01-22T09:39:39.884Z,6620
2018-01-22T09:40:39.896Z,6472
2018-01-22T09:41:39.732Z,7308
2018-01-22T09:42:54.617Z,7644
2018-01-22T09:43:54.614Z,6816
2018-01-22T09:45:39.760Z,5640
2018-01-22T09:46:40.018Z,5640
2018-01-22T09:47:40.004Z,5804
2018-01-22T09:48:40.026Z,7180
2018-01-22T09:49:40.048Z,6296
2018-01-22T09:50:40.038Z,6320
2018-01-22T09:51:40.048Z,6608
2018-01-22T09:52:39.815Z,8752
2018-01-22T09:53:40.121Z,7408
2018-01-22T09:54:39.942Z,8184
2018-01-22T09:55:54.809Z,7540
2018-01-22T09:56:39.875Z,8196
2018-01-22T09:58:39.920Z,7468
2018-01-22T09:59:40.070Z,6392
2018-01-22T10:00:54.896Z,6548
2018-01-22T10:01:40.204Z,7860
2018-01-22T10:03:09.580Z,6556
2018-01-22T10:03:39.749Z,6456
2018-01-22T10:04:40.026Z,6580
2018-01-22T10:06:40.046Z,6420
2018-01-22T10:07:54.833Z,6352
2018-01-22T10:08:54.988Z,6304
2018-01-22T10:09:54.746Z,6248
2018-01-22T10:10:40.121Z,6180
2018-01-22T10:11:55.034Z,6164
2018-01-22T10:12:39.859Z,6136
2018-01-22T10:13:40.279Z,6112
2018-01-22T10:14:40.409Z,6120
2018-01-22T10:15:40.408Z,6060
2018-01-22T10:16:40.457Z,6076
2018-01-22T10:17:40.211Z,6092
2018-01-22T10:18:55.145Z,6048
2018-01-22T10:19:40.231Z,6004
2018-01-22T10:20:40.263Z,5972
2018-01-22T10:21:40.241Z,5940
2018-01-22T10:22:55.212Z,5896
2018-01-22T10:23:40.293Z,5868
2018-01-22T10:24:40.543Z,5832
2018-01-22T10:25:40.184Z,5804
2018-01-22T10:26:40.594Z,5788
2018-01-22T10:28:40.364Z,5712
2018-01-22T10:29:40.653Z,5716
2018-01-22T10:31:40.673Z,5852
2018-01-22T10:32:40.694Z,5928
2018-01-22T10:33:40.712Z,5992
2018-01-22T10:34:55.396Z,6052
2018-01-22T10:35:40.474Z,6068
2018-01-22T10:36:40.763Z,6012
2018-01-22T10:37:40.534Z,5964
2018-01-22T10:39:55.461Z,5716
2018-01-22T10:40:40.799Z,5580
2018-01-22T10:41:40.827Z,5420
2018-01-22T10:42:40.581Z,5240
2018-01-22T10:43:40.843Z,5084
2018-01-22T10:45:40.890Z,4972
2018-01-22T10:46:40.904Z,4996
2018-01-22T10:47:40.894Z,5072
2018-01-22T10:48:40.438Z,5124
2018-01-22T10:50:55.607Z,5248
2018-01-22T10:51:40.979Z,5228
2018-01-22T10:52:40.706Z,5108
2018-01-22T10:53:40.747Z,4960
2018-01-22T10:54:41.041Z,4832
2018-01-22T10:56:41.053Z,4768
2018-01-22T10:57:40.806Z,4796
2018-01-22T10:58:40.806Z,4864
2018-01-22T10:59:40.837Z,4896
2018-01-22T11:00:40.858Z,4904
2018-01-22T11:01:40.850Z,4880
2018-01-22T11:03:40.891Z,4848
2018-01-22T11:04:41.148Z,4852
2018-01-22T11:05:55.607Z,4892
2018-01-22T11:06:41.255Z,4968
2018-01-22T11:07:41.191Z,5136
2018-01-22T11:08:41.206Z,5276
2018-01-22T11:09:41.225Z,5276
2018-01-22T11:10:41.215Z,5260
2018-01-22T11:11:41.039Z,5228
2018-01-22T11:12:41.001Z,5156
2018-01-22T11:13:41.270Z,5036
2018-01-22T11:14:41.045Z,4864
2018-01-22T11:15:41.316Z,4696
2018-01-22T11:16:41.388Z,4548
2018-01-22T11:17:56.102Z,4376
2018-01-22T11:18:41.378Z,4292
2018-01-22T11:19:41.409Z,4224
2018-01-22T11:20:41.396Z,4192
2018-01-22T11:21:41.402Z,4144
2018-01-22T11:22:41.142Z,4044
2018-01-22T11:23:41.300Z,3912
2018-01-22T11:24:41.178Z,3792
2018-01-22T11:25:41.451Z,3712
2018-01-22T11:26:41.244Z,3668
2018-01-22T11:28:41.506Z,3608
2018-01-22T11:29:41.535Z,3588
2018-01-22T11:30:41.517Z,3592
2018-01-22T11:31:41.293Z,3596
2018-01-22T11:32:41.583Z,3564
2018-01-22T11:33:55.999Z,3484
2018-01-22T11:34:41.350Z,3420
2018-01-22T11:35:56.091Z,3328
2018-01-22T11:37:56.294Z,3320
2018-01-22T11:38:41.638Z,3364
2018-01-22T11:39:41.403Z,3448
2018-01-22T11:40:41.670Z,3512
2018-01-22T11:41:41.794Z,3520
2018-01-22T11:42:41.735Z,3464
2018-01-22T11:43:41.850Z,3344
2018-01-22T11:44:41.759Z,3204
2018-01-22T11:45:41.249Z,3092
2018-01-22T11:46:41.547Z,3028
2018-01-22T11:47:41.535Z,2980
2018-01-22T11:48:41.563Z,2928
2018-01-22T11:49:41.319Z,2880
2018-01-22T11:50:41.830Z,2844
2018-01-22T11:51:41.829Z,2828
2018-01-22T11:52:41.855Z,2852
2018-01-22T11:53:56.581Z,2916
2018-01-22T11:54:41.892Z,2972
2018-01-22T11:55:41.931Z,3024
2018-01-22T11:57:41.932Z,3100
2018-01-22T11:58:41.701Z,3144
2018-01-22T11:59:41.965Z,3164
2018-01-22T12:00:42.002Z,3168
2018-01-22T12:01:42.100Z,3168
2018-01-22T12:03:41.790Z,3152
2018-01-22T12:04:42.034Z,3136
2018-01-22T12:05:42.069Z,3124
2018-01-22T12:06:42.048Z,3120
2018-01-22T12:07:42.078Z,3100
2018-01-22T12:08:42.113Z,3052
2018-01-22T12:09:56.769Z,2996
2018-01-22T12:10:42.146Z,2964
2018-01-22T12:11:42.133Z,2940
2018-01-22T12:12:41.916Z,2936
2018-01-22T12:13:41.914Z,2964
2018-01-22T12:14:42.202Z,2988
2018-01-22T12:15:56.610Z,2940
2018-01-22T12:16:42.194Z,2880
2018-01-22T12:17:41.722Z,2772
2018-01-22T12:18:56.918Z,2612
2018-01-22T12:19:56.704Z,2496
2018-01-22T12:20:56.689Z,2412
2018-01-22T12:21:56.712Z,2364
2018-01-22T12:22:42.295Z,2336
2018-01-22T12:23:42.083Z,2288
2018-01-22T12:24:42.087Z,2216
2018-01-22T12:26:11.434Z,2100
2018-01-22T12:26:42.359Z,2064
2018-01-22T12:27:42.338Z,2004
2018-01-22T12:28:42.393Z,1972
2018-01-22T12:29:42.151Z,1952
2018-01-22T12:30:42.164Z,1956
2018-01-22T12:31:42.162Z,1972
2018-01-22T12:32:42.197Z,2000
2018-01-22T12:33:56.871Z,2028
2018-01-22T12:34:42.485Z,2052
2018-01-22T12:35:41.980Z,2088
2018-01-22T12:36:56.920Z,2172
2018-01-22T12:37:42.279Z,2244
2018-01-22T12:38:42.301Z,2348
2018-01-22T12:39:42.534Z,2460
2018-01-22T12:40:57.236Z,2592
2018-01-22T12:41:42.567Z,2656
2018-01-22T12:42:42.594Z,2736
2018-01-22T12:43:42.602Z,2776
2018-01-22T12:44:42.734Z,2748
2018-01-22T12:45:42.634Z,2680
2018-01-22T12:46:42.643Z,2600
2018-01-22T12:47:42.682Z,2520
2018-01-22T12:48:57.360Z,2448
2018-01-22T12:49:42.705Z,2424
2018-01-22T12:50:42.699Z,2400
2018-01-22T12:51:42.702Z,2384
2018-01-22T12:52:42.758Z,2388
2018-01-22T12:53:42.494Z,2404
2018-01-22T12:55:42.790Z,2424
2018-01-22T12:56:56.949Z,2436
2018-01-22T12:57:42.538Z,2456
2018-01-22T12:58:42.815Z,2504
2018-01-22T12:59:42.876Z,2580
2018-01-22T13:00:42.589Z,2656
2018-01-22T13:01:57.274Z,2784
2018-01-22T13:02:42.878Z,2884
2018-01-22T13:03:57.579Z,3088
2018-01-22T13:04:42.671Z,3216
2018-01-22T13:05:42.977Z,3380
2018-01-22T13:06:42.435Z,3532
2018-01-22T13:07:42.703Z,3648
2018-01-22T13:08:42.985Z,3748
2018-01-22T13:09:57.755Z,3844
2018-01-22T13:10:43.182Z,3884
2018-01-22T13:11:43.011Z,3920
2018-01-22T13:12:57.791Z,3948
2018-01-22T13:13:42.770Z,3948
2018-01-22T13:14:42.850Z,3924
2018-01-22T13:15:43.048Z,3896
2018-01-22T13:16:43.080Z,3876
2018-01-22T13:17:43.092Z,3852
2018-01-22T13:18:42.851Z,3836
2018-01-22T13:19:43.099Z,3812
2018-01-22T13:20:42.910Z,3780
2018-01-22T13:21:43.176Z,3756
2018-01-22T13:22:42.938Z,3760
2018-01-22T13:23:42.936Z,3780
2018-01-22T13:24:43.185Z,3824
2018-01-22T13:25:42.946Z,3864
2018-01-22T13:26:42.969Z,3904
2018-01-22T13:27:43.012Z,3976
2018-01-22T13:28:57.937Z,4076
2018-01-22T13:29:42.796Z,4116
2018-01-22T13:30:43.025Z,4132
2018-01-22T13:31:43.062Z,4112
2018-01-22T13:32:43.401Z,4048
2018-01-22T13:33:43.324Z,3980
2018-01-22T13:35:43.340Z,3788
2018-01-22T13:36:43.230Z,3708
2018-01-22T13:37:43.410Z,3616
2018-01-22T13:38:43.389Z,3512
2018-01-22T13:39:43.172Z,3404
2018-01-22T13:40:43.534Z,3324
2018-01-22T13:41:43.433Z,3276
2018-01-22T13:42:43.506Z,3264
2018-01-22T13:43:43.460Z,3276
2018-01-22T13:44:58.170Z,3304
2018-01-22T13:45:43.513Z,3312
2018-01-22T13:46:43.503Z,3328
2018-01-22T13:47:43.566Z,3340
2018-01-22T13:48:43.569Z,3332
2018-01-22T13:49:43.052Z,3308
2018-01-22T13:50:43.574Z,3268
2018-01-22T13:51:43.330Z,3232
2018-01-22T13:52:58.310Z,3188
2018-01-22T13:53:43.613Z,3144
2018-01-22T13:54:58.302Z,3052
2018-01-22T13:56:43.687Z,2860
2018-01-22T13:57:58.147Z,2684
2018-01-22T13:58:43.680Z,2568
2018-01-22T13:59:43.721Z,2408
2018-01-22T14:01:13.074Z,2200
2018-01-22T14:01:43.748Z,2152
2018-01-22T14:02:43.778Z,2076
2018-01-22T14:03:43.769Z,2032
2018-01-22T14:04:43.812Z,2008
2018-01-22T14:05:43.815Z,1988
2018-01-22T14:07:43.703Z,1948
2018-01-22T14:08:43.844Z,1924
2018-01-22T14:09:43.866Z,1892
2018-01-22T14:10:43.875Z,1856
2018-01-22T14:11:43.624Z,1800
2018-01-22T14:12:43.631Z,1744
2018-01-22T14:13:43.653Z,1708
2018-01-22T14:14:43.935Z,1668
2018-01-22T14:15:58.613Z,1632
2018-01-22T14:16:43.959Z,1608
2018-01-22T14:17:44.151Z,1580
2018-01-22T14:18:44.013Z,1544
2018-01-22T14:19:43.773Z,1516
2018-01-22T14:20:43.998Z,1488
2018-01-22T14:21:44.123Z,1464
2018-01-22T14:22:44.060Z,1432
2018-01-22T14:23:44.080Z,1396
2018-01-22T14:24:43.824Z,1348
2018-01-22T14:25:58.816Z,1280
2018-01-22T14:26:58.533Z,1244
2018-01-22T14:27:58.880Z,1208
2018-01-22T14:28:44.151Z,1192
2018-01-22T14:29:44.154Z,1172
2018-01-22T14:30:44.266Z,1164
2018-01-22T14:31:43.922Z,1156
2018-01-22T14:32:44.195Z,1148
2018-01-22T14:33:44.232Z,1136
2018-01-22T14:34:43.985Z,1116
2018-01-22T14:35:44.230Z,1096
2018-01-22T14:36:44.281Z,1076
2018-01-22T14:38:44.294Z,1044
2018-01-22T14:39:44.301Z,1032
2018-01-22T14:40:43.812Z,1024
2018-01-22T14:41:59.027Z,1012
2018-01-22T14:42:44.354Z,996
2018-01-22T14:44:44.388Z,952
2018-01-22T14:46:44.164Z,916
2018-01-22T14:47:58.839Z,912
2018-01-22T14:48:44.403Z,896
2018-01-22T14:49:44.181Z,880
2018-01-22T14:50:44.457Z,852
2018-01-22T14:51:59.164Z,824
2018-01-22T14:52:44.212Z,804
2018-01-22T14:53:44.496Z,768
2018-01-22T14:54:44.504Z,736
2018-01-22T14:55:44.282Z,692
2018-01-22T14:56:44.319Z,644
2018-01-22T14:57:59.258Z,588
2018-01-22T14:58:44.566Z,552
2018-01-22T14:59:44.581Z,512
2018-01-22T15:00:44.385Z,480
2018-01-22T15:01:44.359Z,452
2018-01-22T15:02:44.621Z,432